Wetterdaten: Woche 01.06.09 - 07.06.09 (KW23)
Datum Zeit Temp. Innen Temp. Aussen UV X Diff Temp. Feuchte Inne Feuchte Auss Sonnenschein Luftdruck Regen ab 0,1 Wind Sonnenschein Windben
01.06.2009 00:00 22,2 C 16,3 C 0,0 UV-I 0,0 C 49 % 68 % 0 % 1022,7 hPa 0,0 l/m 0,0 km/h (0 Bft) 0,00 h 0,0 km/h (0 Bft)
01.06.2009 01:00 21,8 C 15,2 C 0,0 UV-I 0,0 C 51 % 72 % 0 % 1022,2 hPa 0,0 l/m 0,0 km/h (0 Bft) 0,00 h 0,0 km/h (0 Bft)
01.06.2009 02:00 21,5 C 14,2 C 0,0 UV-I 0,0 C 52 % 76 % 0 % 1022,0 hPa 0,0 l/m 0,0 km/h (0 Bft) 0,00 h 0,0 km/h (0 Bft)
01.06.2009 03:00 21,3 C 13,4 C 0,0 UV-I 0,0 C 52 % 79 % 0 % 1021,6 hPa 0,0 l/m 0,0 km/h (0 Bft) 0,00 h 0,0 km/h (0 Bft)
01.06.2009 04:00 21,0 C 12,8 C 0,0 UV-I 0,0 C 53 % 81 % 0 % 1021,4 hPa 0,0 l/m 0,0 km/h (0 Bft) 0,00 h 0,0 km/h (0 Bft)
01.06.2009 05:00 20,8 C 12,7 C 0,0 UV-I 0,0 C 54 % 83 % 0 % 1021,6 hPa 0,0 l/m 0,0 km/h (0 Bft) 0,00 h 0,0 km/h (0 Bft)
01.06.2009 06:00 20,7 C 13,0 C 0,4 UV-I 0,1 C 55 % 85 % 4 % 1021,7 hPa 0,0 l/m 0,0 km/h (0 Bft) 0,00 h 0,1 km/h (0 Bft)
01.06.2009 07:00 20,7 C 14,6 C 0,9 UV-I 0,5 C 56 % 85 % 15 % 1022,1 hPa 0,0 l/m 0,8 km/h (0 Bft) 0,00 h 1,9 km/h (1 Bft)
01.06.2009 08:00 20,9 C 17,0 C 1,4 UV-I 0,6 C 58 % 81 % 16 % 1021,9 hPa 0,0 l/m 2,7 km/h (1 Bft) 0,00 h 3,6 km/h (1 Bft)
01.06.2009 09:00 21,1 C 19,1 C 1,7 UV-I 2,1 C 62 % 74 % 46 % 1022,0 hPa 0,0 l/m 1,8 km/h (1 Bft) 0,27 h 2,7 km/h (1 Bft)
01.06.2009 10:00 21,4 C 22,2 C 2,0 UV-I 6,7 C 60 % 60 % 100 % 1022,1 hPa 0,0 l/m 1,7 km/h (1 Bft) 0,97 h 2,8 km/h (1 Bft)
01.06.2009 11:00 21,8 C 25,1 C 4,6 UV-I 5,7 C 56 % 45 % 100 % 1021,7 hPa 0,0 l/m 1,7 km/h (1 Bft) 0,93 h 3,4 km/h (1 Bft)
01.06.2009 12:00 22,3 C 27,1 C 7,9 UV-I 5,2 C 52 % 39 % 100 % 1021,6 hPa 0,0 l/m 1,0 km/h (0 Bft) 0,97 h 2,7 km/h (1 Bft)
01.06.2009 13:00 22,8 C 27,2 C 6,6 UV-I 3,1 C 50 % 37 % 84 % 1021,2 hPa 0,0 l/m 3,8 km/h (1 Bft) 0,63 h 6,0 km/h (2 Bft)
01.06.2009 14:00 23,3 C 27,6 C 6,6 UV-I 3,5 C 47 % 36 % 88 % 1021,5 hPa 0,0 l/m 2,0 km/h (1 Bft) 0,70 h 3,6 km/h (1 Bft)
01.06.2009 15:00 23,9 C 28,2 C 4,9 UV-I 2,8 C 46 % 35 % 69 % 1021,8 hPa 0,0 l/m 2,2 km/h (1 Bft) 0,60 h 3,7 km/h (1 Bft)
01.06.2009 16:00 24,6 C 27,7 C 5,1 UV-I 2,6 C 44 % 36 % 71 % 1022,0 hPa 0,0 l/m 3,3 km/h (1 Bft) 0,43 h 4,7 km/h (1 Bft)
01.06.2009 17:00 25,2 C 27,8 C 3,3 UV-I 3,0 C 44 % 36 % 80 % 1021,4 hPa 0,0 l/m 4,1 km/h (1 Bft) 0,67 h 5,3 km/h (1 Bft)
01.06.2009 18:00 24,9 C 25,5 C 2,3 UV-I 0,5 C 44 % 43 % 15 % 1020,1 hPa 0,0 l/m 7,2 km/h (2 Bft) 0,00 h 8,4 km/h (2 Bft)
01.06.2009 19:00 24,5 C 23,7 C 1,2 UV-I 0,0 C 47 % 50 % 0 % 1020,1 hPa 0,0 l/m 5,9 km/h (2 Bft) 0,00 h 7,0 km/h (2 Bft)
01.06.2009 20:00 24,1 C 22,6 C 0,6 UV-I 0,0 C 48 % 54 % 0 % 1020,1 hPa 0,0 l/m 3,8 km/h (1 Bft) 0,00 h 4,1 km/h (1 Bft)
01.06.2009 21:00 23,8 C 21,9 C 0,1 UV-I 0,0 C 50 % 57 % 0 % 1020,1 hPa 0,0 l/m 4,3 km/h (1 Bft) 0,00 h 4,6 km/h (1 Bft)
01.06.2009 22:00 23,4 C 20,6 C 0,0 UV-I 0,0 C 50 % 58 % 0 % 1020,3 hPa 0,0 l/m 3,0 km/h (1 Bft) 0,00 h 3,7 km/h (1 Bft)
01.06.2009 23:00 23,1 C 19,1 C 0,0 UV-I 0,0 C 50 % 57 % 0 % 1020,6 hPa 0,0 l/m 1,4 km/h (1 Bft) 0,00 h 1,9 km/h (1 Bft)
02.06.2009 00:00 22,7 C 17,6 C 0,0 UV-I 0,0 C 48 % 57 % 0 % 1020,8 hPa 0,0 l/m 0,7 km/h (0 Bft) 0,00 h 1,9 km/h (1 Bft)
02.06.2009 01:00 22,4 C 16,0 C 0,0 UV-I 0,0 C 48 % 61 % 0 % 1020,6 hPa 0,0 l/m 1,1 km/h (0 Bft) 0,00 h 1,7 km/h (1 Bft)
02.06.2009 02:00 22,0 C 14,6 C 0,0 UV-I 0,0 C 48 % 64 % 0 % 1020,5 hPa 0,0 l/m 0,3 km/h (0 Bft) 0,00 h 0,9 km/h (0 Bft)
02.06.2009 03:00 21,6 C 13,4 C 0,0 UV-I 0,0 C 49 % 71 % 0 % 1020,3 hPa 0,0 l/m 0,8 km/h (0 Bft) 0,00 h 1,6 km/h (1 Bft)
02.06.2009 04:00 21,3 C 12,4 C 0,0 UV-I 0,0 C 50 % 78 % 0 % 1020,0 hPa 0,0 l/m 0,7 km/h (0 Bft) 0,00 h 1,2 km/h (1 Bft)
02.06.2009 05:00 21,0 C 11,5 C 0,1 UV-I 0,0 C 51 % 82 % 0 % 1020,0 hPa 0,0 l/m 0,1 km/h (0 Bft) 0,00 h 0,5 km/h (0 Bft)
02.06.2009 06:00 20,7 C 11,4 C 0,3 UV-I 0,0 C 52 % 86 % 1 % 1020,2 hPa 0,0 l/m 1,5 km/h (1 Bft) 0,00 h 2,7 km/h (1 Bft)
02.06.2009 07:00 20,6 C 11,9 C 0,8 UV-I 0,3 C 53 % 85 % 9 % 1020,4 hPa 0,0 l/m 2,6 km/h (1 Bft) 0,00 h 3,0 km/h (1 Bft)
02.06.2009 08:00 20,6 C 12,8 C 1,6 UV-I 1,1 C 53 % 82 % 33 % 1020,9 hPa 0,0 l/m 2,0 km/h (1 Bft) 0,00 h 3,4 km/h (1 Bft)
02.06.2009 09:00 20,8 C 13,6 C 2,6 UV-I 1,9 C 52 % 78 % 46 % 1021,1 hPa 0,0 l/m 2,4 km/h (1 Bft) 0,27 h 3,6 km/h (1 Bft)
02.06.2009 10:00 20,8 C 15,8 C 9,4 UV-I 6,2 C 52 % 71 % 100 % 1020,9 hPa 0,0 l/m 3,0 km/h (1 Bft) 0,97 h 4,2 km/h (1 Bft)
02.06.2009 11:00 20,8 C 18,8 C 11,5 UV-I 5,6 C 52 % 60 % 100 % 1020,8 hPa 0,0 l/m 3,1 km/h (1 Bft) 0,97 h 2,9 km/h (1 Bft)
02.06.2009 12:00 21,1 C 21,2 C 7,8 UV-I 4,9 C 51 % 49 % 100 % 1020,4 hPa 0,0 l/m 3,6 km/h (1 Bft) 0,92 h 4,3 km/h (1 Bft)
02.06.2009 13:00 21,8 C 23,2 C 7,3 UV-I 3,9 C 49 % 43 % 100 % 1020,5 hPa 0,0 l/m 4,8 km/h (1 Bft) 0,93 h 6,0 km/h (2 Bft)
02.06.2009 14:00 22,7 C 24,7 C 7,0 UV-I 3,7 C 46 % 39 % 100 % 1020,9 hPa 0,0 l/m 4,7 km/h (1 Bft) 0,97 h 5,4 km/h (1 Bft)
02.06.2009 15:00 24,2 C 25,8 C 6,4 UV-I 3,5 C 43 % 37 % 97 % 1022,6 hPa 0,0 l/m 5,8 km/h (2 Bft) 0,97 h 7,2 km/h (2 Bft)
02.06.2009 16:00 25,8 C 26,2 C 7,2 UV-I 3,3 C 40 % 36 % 93 % 1024,1 hPa 0,0 l/m 6,5 km/h (2 Bft) 0,97 h 6,5 km/h (2 Bft)
02.06.2009 17:00 26,6 C 26,1 C 3,5 UV-I 3,1 C 38 % 34 % 89 % 1024,2 hPa 0,0 l/m 6,4 km/h (2 Bft) 0,97 h 6,8 km/h (2 Bft)
02.06.2009 18:00 26,4 C 24,8 C 2,2 UV-I 2,2 C 37 % 35 % 62 % 1021,8 hPa 0,0 l/m 7,1 km/h (2 Bft) 0,37 h 8,4 km/h (2 Bft)
02.06.2009 19:00 25,4 C 23,2 C 1,4 UV-I 0,0 C 38 % 39 % 0 % 1020,0 hPa 0,0 l/m 6,2 km/h (2 Bft) 0,00 h 6,3 km/h (2 Bft)
02.06.2009 20:00 24,7 C 21,6 C 0,7 UV-I 0,0 C 39 % 42 % 0 % 1019,8 hPa 0,0 l/m 5,7 km/h (1 Bft) 0,00 h 6,1 km/h (2 Bft)
02.06.2009 21:00 24,2 C 19,6 C 0,1 UV-I 0,0 C 38 % 44 % 0 % 1019,7 hPa 0,0 l/m 5,1 km/h (1 Bft) 0,00 h 5,0 km/h (1 Bft)
02.06.2009 22:00 23,6 C 18,0 C 0,0 UV-I 0,0 C 38 % 45 % 0 % 1019,9 hPa 0,0 l/m 4,2 km/h (1 Bft) 0,00 h 4,9 km/h (1 Bft)
02.06.2009 23:00 23,0 C 16,3 C 0,0 UV-I 0,0 C 39 % 52 % 0 % 1020,0 hPa 0,0 l/m 2,0 km/h (1 Bft) 0,00 h 2,9 km/h (1 Bft)
03.06.2009 00:00 22,5 C 14,9 C 0,0 UV-I 0,0 C 41 % 58 % 0 % 1020,0 hPa 0,0 l/m 1,0 km/h (0 Bft) 0,00 h 1,8 km/h (1 Bft)
03.06.2009 01:00 22,1 C 13,7 C 0,0 UV-I 0,0 C 43 % 67 % 0 % 1019,5 hPa 0,0 l/m 0,2 km/h (0 Bft) 0,00 h 0,6 km/h (0 Bft)
03.06.2009 02:00 21,7 C 12,5 C 0,0 UV-I 0,0 C 45 % 72 % 0 % 1019,2 hPa 0,0 l/m 0,0 km/h (0 Bft) 0,00 h 0,0 km/h (0 Bft)
03.06.2009 03:00 21,3 C 12,1 C 0,0 UV-I 0,0 C 45 % 74 % 0 % 1019,2 hPa 0,0 l/m 1,4 km/h (1 Bft) 0,00 h 2,0 km/h (1 Bft)
03.06.2009 04:00 21,0 C 11,8 C 0,0 UV-I 0,0 C 45 % 72 % 0 % 1018,7 hPa 0,0 l/m 0,8 km/h (0 Bft) 0,00 h 0,7 km/h (0 Bft)
03.06.2009 05:00 20,7 C 11,0 C 0,0 UV-I 0,0 C 45 % 75 % 0 % 1018,6 hPa 0,0 l/m 0,7 km/h (0 Bft) 0,00 h 1,1 km/h (1 Bft)
03.06.2009 06:00 20,5 C 10,8 C 0,4 UV-I 0,0 C 46 % 75 % 0 % 1018,7 hPa 0,0 l/m 1,6 km/h (1 Bft) 0,00 h 1,6 km/h (1 Bft)
03.06.2009 07:00 20,3 C 11,3 C 1,1 UV-I 0,2 C 46 % 75 % 6 % 1018,9 hPa 0,0 l/m 3,2 km/h (1 Bft) 0,00 h 3,2 km/h (1 Bft)
03.06.2009 08:00 20,3 C 12,1 C 1,6 UV-I 0,8 C 46 % 72 % 24 % 1019,0 hPa 0,0 l/m 3,8 km/h (1 Bft) 0,00 h 3,8 km/h (1 Bft)
03.06.2009 09:00 20,6 C 13,1 C 2,5 UV-I 1,4 C 45 % 67 % 39 % 1019,3 hPa 0,0 l/m 4,1 km/h (1 Bft) 0,00 h 4,3 km/h (1 Bft)
03.06.2009 10:00 20,7 C 13,9 C 4,6 UV-I 1,9 C 45 % 63 % 54 % 1018,8 hPa 0,0 l/m 4,0 km/h (1 Bft) 0,10 h 3,6 km/h (1 Bft)
03.06.2009 11:00 20,9 C 15,6 C 6,7 UV-I 3,7 C 44 % 56 % 92 % 1018,7 hPa 0,0 l/m 4,6 km/h (1 Bft) 0,77 h 4,9 km/h (1 Bft)
03.06.2009 12:00 21,2 C 16,7 C 5,0 UV-I 2,4 C 43 % 51 % 67 % 1018,6 hPa 0,0 l/m 4,6 km/h (1 Bft) 0,10 h 4,5 km/h (1 Bft)
03.06.2009 13:00 21,5 C 17,4 C 5,6 UV-I 2,8 C 42 % 49 % 78 % 1018,7 hPa 0,0 l/m 5,3 km/h (1 Bft) 0,50 h 5,3 km/h (1 Bft)
03.06.2009 14:00 22,0 C 18,6 C 6,2 UV-I 3,3 C 41 % 43 % 86 % 1018,9 hPa 0,0 l/m 5,6 km/h (1 Bft) 0,67 h 6,2 km/h (2 Bft)
03.06.2009 15:00 22,6 C 18,3 C 4,5 UV-I 1,7 C 39 % 45 % 48 % 1019,1 hPa 0,0 l/m 6,4 km/h (2 Bft) 0,03 h 6,9 km/h (2 Bft)
03.06.2009 16:00 22,9 C 17,6 C 4,0 UV-I 1,3 C 39 % 48 % 38 % 1019,1 hPa 0,0 l/m 6,2 km/h (2 Bft) 0,00 h 5,5 km/h (1 Bft)
03.06.2009 17:00 23,0 C 17,4 C 3,4 UV-I 1,4 C 38 % 46 % 39 % 1018,9 hPa 0,0 l/m 6,1 km/h (2 Bft) 0,00 h 5,9 km/h (2 Bft)
03.06.2009 18:00 22,9 C 16,6 C 2,1 UV-I 0,5 C 38 % 47 % 13 % 1017,8 hPa 0,0 l/m 6,2 km/h (2 Bft) 0,00 h 5,8 km/h (2 Bft)
03.06.2009 19:00 22,4 C 15,6 C 1,0 UV-I 0,0 C 38 % 50 % 1 % 1017,5 hPa 0,0 l/m 5,4 km/h (1 Bft) 0,00 h 5,5 km/h (1 Bft)
03.06.2009 20:00 21,9 C 14,7 C 0,3 UV-I 0,0 C 39 % 54 % 0 % 1017,4 hPa 0,0 l/m 5,3 km/h (1 Bft) 0,00 h 5,0 km/h (1 Bft)
03.06.2009 21:00 21,4 C 13,7 C 0,0 UV-I 0,0 C 40 % 58 % 0 % 1016,8 hPa 0,0 l/m 3,3 km/h (1 Bft) 0,00 h 3,6 km/h (1 Bft)
03.06.2009 22:00 20,9 C 12,7 C 0,0 UV-I 0,0 C 40 % 58 % 0 % 1016,8 hPa 0,0 l/m 2,9 km/h (1 Bft) 0,00 h 3,1 km/h (1 Bft)
03.06.2009 23:00 20,5 C 11,5 C 0,0 UV-I 0,0 C 41 % 63 % 0 % 1016,6 hPa 0,0 l/m 1,5 km/h (1 Bft) 0,00 h 1,6 km/h (1 Bft)
04.06.2009 00:00 20,1 C 10,4 C 0,0 UV-I 0,0 C 42 % 66 % 0 % 1016,7 hPa 0,0 l/m 0,1 km/h (0 Bft) 0,00 h 0,2 km/h (0 Bft)
04.06.2009 01:00 19,8 C 10,0 C 0,0 UV-I 0,0 C 42 % 69 % 0 % 1016,3 hPa 0,0 l/m 0,2 km/h (0 Bft) 0,00 h 0,8 km/h (0 Bft)
04.06.2009 02:00 19,6 C 10,4 C 0,0 UV-I 0,0 C 43 % 68 % 0 % 1016,2 hPa 0,0 l/m 0,7 km/h (0 Bft) 0,00 h 0,7 km/h (0 Bft)
04.06.2009 03:00 19,5 C 10,4 C 0,0 UV-I 0,0 C 43 % 68 % 0 % 1016,1 hPa 0,0 l/m 0,6 km/h (0 Bft) 0,00 h 1,0 km/h (0 Bft)
04.06.2009 04:00 19,4 C 10,1 C 0,0 UV-I 0,0 C 43 % 68 % 0 % 1016,0 hPa 0,0 l/m 0,7 km/h (0 Bft) 0,00 h 1,0 km/h (0 Bft)
04.06.2009 05:00 19,2 C 9,6 C 0,1 UV-I 0,0 C 43 % 69 % 0 % 1015,5 hPa 0,0 l/m 0,8 km/h (0 Bft) 0,00 h 1,0 km/h (0 Bft)
04.06.2009 06:00 19,1 C 9,4 C 0,3 UV-I 0,0 C 44 % 72 % 0 % 1015,4 hPa 0,0 l/m 0,6 km/h (0 Bft) 0,00 h 0,9 km/h (0 Bft)
04.06.2009 07:00 19,4 C 9,7 C 0,8 UV-I 0,1 C 44 % 73 % 2 % 1016,0 hPa 0,0 l/m 2,0 km/h (1 Bft) 0,00 h 2,9 km/h (1 Bft)
04.06.2009 08:00 19,4 C 10,3 C 1,6 UV-I 0,8 C 44 % 70 % 24 % 1016,4 hPa 0,0 l/m 2,0 km/h (1 Bft) 0,00 h 1,4 km/h (1 Bft)
04.06.2009 09:00 19,4 C 10,7 C 2,2 UV-I 1,0 C 44 % 70 % 28 % 1016,4 hPa 0,0 l/m 2,1 km/h (1 Bft) 0,00 h 2,0 km/h (1 Bft)
04.06.2009 10:00 19,6 C 11,8 C 5,2 UV-I 2,9 C 44 % 65 % 72 % 1016,3 hPa 0,0 l/m 2,3 km/h (1 Bft) 0,50 h 2,9 km/h (1 Bft)
04.06.2009 11:00 19,5 C 13,3 C 2,6 UV-I 1,5 C 43 % 58 % 42 % 1015,8 hPa 0,0 l/m 2,9 km/h (1 Bft) 0,07 h 3,7 km/h (1 Bft)
04.06.2009 12:00 19,7 C 14,3 C 5,1 UV-I 2,9 C 44 % 54 % 66 % 1015,5 hPa 0,0 l/m 3,4 km/h (1 Bft) 0,50 h 4,2 km/h (1 Bft)
04.06.2009 13:00 20,0 C 14,9 C 2,4 UV-I 0,5 C 42 % 49 % 15 % 1015,3 hPa 0,0 l/m 3,7 km/h (1 Bft) 0,00 h 4,3 km/h (1 Bft)
04.06.2009 14:00 20,1 C 15,2 C 4,1 UV-I 1,9 C 41 % 50 % 53 % 1015,3 hPa 0,0 l/m 3,7 km/h (1 Bft) 0,20 h 4,4 km/h (1 Bft)
04.06.2009 15:00 20,6 C 15,9 C 3,4 UV-I 1,3 C 40 % 47 % 37 % 1015,4 hPa 0,0 l/m 3,3 km/h (1 Bft) 0,13 h 3,6 km/h (1 Bft)
04.06.2009 16:00 20,7 C 15,4 C 2,1 UV-I 0,3 C 40 % 50 % 8 % 1014,7 hPa 0,0 l/m 3,2 km/h (1 Bft) 0,00 h 3,2 km/h (1 Bft)
04.06.2009 17:00 20,8 C 15,8 C 2,7 UV-I 1,8 C 40 % 48 % 50 % 1014,8 hPa 0,0 l/m 4,3 km/h (1 Bft) 0,30 h 5,2 km/h (1 Bft)
04.06.2009 18:00 21,0 C 15,3 C 1,1 UV-I 0,3 C 39 % 49 % 8 % 1014,2 hPa 0,0 l/m 3,9 km/h (1 Bft) 0,00 h 4,2 km/h (1 Bft)
04.06.2009 19:00 20,6 C 14,1 C 0,5 UV-I 0,0 C 39 % 51 % 0 % 1013,3 hPa 0,0 l/m 3,4 km/h (1 Bft) 0,00 h 4,2 km/h (1 Bft)
04.06.2009 20:00 20,0 C 13,6 C 0,5 UV-I 0,0 C 39 % 53 % 0 % 1013,2 hPa 0,0 l/m 2,9 km/h (1 Bft) 0,00 h 3,8 km/h (1 Bft)
04.06.2009 21:00 19,6 C 12,5 C 0,1 UV-I 0,0 C 39 % 54 % 0 % 1012,7 hPa 0,0 l/m 3,1 km/h (1 Bft) 0,00 h 2,6 km/h (1 Bft)
04.06.2009 22:00 19,2 C 11,5 C 0,0 UV-I 0,0 C 40 % 58 % 0 % 1012,5 hPa 0,0 l/m 0,9 km/h (0 Bft) 0,00 h 1,3 km/h (1 Bft)
04.06.2009 23:00 19,0 C 11,2 C 0,0 UV-I 0,0 C 41 % 61 % 0 % 1012,5 hPa 0,0 l/m 1,3 km/h (1 Bft) 0,00 h 1,4 km/h (1 Bft)
05.06.2009 00:00 18,8 C 10,8 C 0,0 UV-I 0,0 C 42 % 65 % 0 % 1012,3 hPa 0,0 l/m 1,5 km/h (1 Bft) 0,00 h 1,4 km/h (1 Bft)
05.06.2009 01:00 18,7 C 10,1 C 0,0 UV-I 0,0 C 43 % 68 % 0 % 1012,1 hPa 0,0 l/m 1,2 km/h (1 Bft) 0,00 h 1,5 km/h (1 Bft)
05.06.2009 02:00 18,5 C 9,6 C 0,0 UV-I 0,0 C 44 % 71 % 0 % 1011,7 hPa 0,0 l/m 1,3 km/h (1 Bft) 0,00 h 1,2 km/h (1 Bft)
05.06.2009 03:00 18,3 C 9,2 C 0,0 UV-I 0,0 C 45 % 73 % 0 % 1011,2 hPa 0,0 l/m 0,5 km/h (0 Bft) 0,00 h 0,7 km/h (0 Bft)
05.06.2009 04:00 18,2 C 8,8 C 0,0 UV-I 0,0 C 45 % 76 % 0 % 1011,0 hPa 0,0 l/m 0,1 km/h (0 Bft) 0,00 h 0,1 km/h (0 Bft)
05.06.2009 05:00 18,0 C 8,8 C 0,0 UV-I 0,0 C 46 % 77 % 0 % 1010,6 hPa 0,0 l/m 0,2 km/h (0 Bft) 0,00 h 0,3 km/h (0 Bft)
05.06.2009 06:00 18,0 C 8,7 C 0,4 UV-I 0,0 C 46 % 78 % 0 % 1010,7 hPa 0,0 l/m 0,2 km/h (0 Bft) 0,00 h 0,3 km/h (0 Bft)
05.06.2009 07:00 18,2 C 9,3 C 0,9 UV-I 0,5 C 46 % 77 % 15 % 1010,8 hPa 0,0 l/m 0,5 km/h (0 Bft) 0,00 h 0,8 km/h (0 Bft)
05.06.2009 08:00 18,3 C 10,3 C 1,7 UV-I 1,1 C 46 % 74 % 30 % 1010,9 hPa 0,0 l/m 1,5 km/h (1 Bft) 0,00 h 2,7 km/h (1 Bft)
05.06.2009 09:00 18,5 C 11,4 C 2,6 UV-I 1,9 C 46 % 68 % 54 % 1010,8 hPa 0,0 l/m 1,6 km/h (1 Bft) 0,00 h 1,9 km/h (1 Bft)
05.06.2009 10:00 18,6 C 12,7 C 4,0 UV-I 3,2 C 44 % 61 % 79 % 1010,5 hPa 0,0 l/m 1,6 km/h (1 Bft) 0,50 h 1,4 km/h (1 Bft)
05.06.2009 11:00 18,8 C 13,6 C 3,9 UV-I 2,2 C 44 % 56 % 64 % 1010,2 hPa 0,0 l/m 1,5 km/h (1 Bft) 0,10 h 1,7 km/h (1 Bft)
05.06.2009 12:00 19,2 C 14,4 C 3,8 UV-I 2,1 C 43 % 53 % 60 % 1010,3 hPa 0,0 l/m 1,1 km/h (1 Bft) 0,13 h 1,6 km/h (1 Bft)
05.06.2009 13:00 19,4 C 14,4 C 2,5 UV-I 0,9 C 42 % 52 % 25 % 1010,0 hPa 0,0 l/m 0,7 km/h (0 Bft) 0,00 h 0,7 km/h (0 Bft)
05.06.2009 14:00 19,4 C 14,4 C 2,9 UV-I 0,8 C 42 % 52 % 23 % 1009,7 hPa 0,0 l/m 0,7 km/h (0 Bft) 0,00 h 0,8 km/h (0 Bft)
05.06.2009 15:00 19,8 C 15,6 C 4,4 UV-I 3,1 C 42 % 49 % 80 % 1009,8 hPa 0,0 l/m 0,9 km/h (0 Bft) 0,53 h 0,9 km/h (0 Bft)
05.06.2009 16:00 20,2 C 16,4 C 3,6 UV-I 1,8 C 40 % 47 % 51 % 1009,5 hPa 0,0 l/m 0,5 km/h (0 Bft) 0,20 h 0,7 km/h (0 Bft)
05.06.2009 17:00 20,4 C 16,4 C 1,9 UV-I 0,1 C 39 % 45 % 3 % 1009,4 hPa 0,0 l/m 0,3 km/h (0 Bft) 0,00 h 0,2 km/h (0 Bft)
05.06.2009 18:00 20,3 C 16,1 C 2,3 UV-I 0,9 C 39 % 46 % 26 % 1008,3 hPa 0,0 l/m 0,2 km/h (0 Bft) 0,00 h 0,2 km/h (0 Bft)
05.06.2009 19:00 20,2 C 15,5 C 1,1 UV-I 0,2 C 40 % 47 % 5 % 1007,8 hPa 0,0 l/m 0,1 km/h (0 Bft) 0,00 h 0,1 km/h (0 Bft)
05.06.2009 20:00 20,0 C 14,5 C 0,5 UV-I 0,0 C 40 % 49 % 0 % 1007,4 hPa 0,0 l/m 0,1 km/h (0 Bft) 0,00 h 0,0 km/h (0 Bft)
05.06.2009 21:00 19,7 C 13,5 C 0,0 UV-I 0,0 C 41 % 54 % 0 % 1007,1 hPa 0,0 l/m 0,0 km/h (0 Bft) 0,00 h 0,0 km/h (0 Bft)
05.06.2009 22:00 19,4 C 12,5 C 0,0 UV-I 0,0 C 42 % 59 % 0 % 1007,0 hPa 0,0 l/m 0,0 km/h (0 Bft) 0,00 h 0,0 km/h (0 Bft)
05.06.2009 23:00 19,1 C 11,5 C 0,0 UV-I 0,0 C 43 % 65 % 0 % 1007,1 hPa 0,0 l/m 0,0 km/h (0 Bft) 0,00 h 0,1 km/h (0 Bft)
06.06.2009 00:00 18,8 C 10,0 C 0,0 UV-I 0,0 C 44 % 69 % 0 % 1006,2 hPa 0,0 l/m 0,0 km/h (0 Bft) 0,00 h 0,0 km/h (0 Bft)
06.06.2009 01:00 18,4 C 8,7 C 0,0 UV-I 0,0 C 44 % 72 % 0 % 1005,4 hPa 0,0 l/m 0,0 km/h (0 Bft) 0,00 h 0,0 km/h (0 Bft)
06.06.2009 02:00 18,2 C 7,8 C 0,0 UV-I 0,0 C 45 % 76 % 0 % 1004,4 hPa 0,0 l/m 0,0 km/h (0 Bft) 0,00 h 0,0 km/h (0 Bft)
06.06.2009 03:00 18,0 C 7,2 C 0,0 UV-I 0,0 C 45 % 78 % 0 % 1004,0 hPa 0,0 l/m 0,0 km/h (0 Bft) 0,00 h 0,0 km/h (0 Bft)
06.06.2009 04:00 17,8 C 6,8 C 0,0 UV-I 0,0 C 46 % 80 % 0 % 1003,4 hPa 0,0 l/m 0,0 km/h (0 Bft) 0,00 h 0,0 km/h (0 Bft)
06.06.2009 05:00 17,7 C 6,7 C 0,0 UV-I 0,0 C 46 % 81 % 0 % 1002,7 hPa 0,0 l/m 0,0 km/h (0 Bft) 0,00 h 0,0 km/h (0 Bft)
06.06.2009 06:00 17,6 C 7,2 C 0,3 UV-I 0,0 C 46 % 82 % 0 % 1001,8 hPa 0,0 l/m 0,3 km/h (0 Bft) 0,00 h 0,5 km/h (0 Bft)
06.06.2009 07:00 17,6 C 8,4 C 0,7 UV-I 0,6 C 46 % 78 % 17 % 1001,2 hPa 0,0 l/m 0,0 km/h (0 Bft) 0,00 h 0,2 km/h (0 Bft)
06.06.2009 08:00 17,8 C 10,0 C 1,5 UV-I 1,5 C 45 % 71 % 43 % 1000,8 hPa 0,0 l/m 0,1 km/h (0 Bft) 0,00 h 0,3 km/h (0 Bft)
06.06.2009 09:00 18,1 C 11,7 C 2,3 UV-I 1,8 C 45 % 66 % 51 % 1000,3 hPa 0,0 l/m 0,2 km/h (0 Bft) 0,00 h 0,5 km/h (0 Bft)
06.06.2009 10:00 18,4 C 13,1 C 2,6 UV-I 1,6 C 44 % 62 % 47 % 1000,0 hPa 0,0 l/m 0,5 km/h (0 Bft) 0,00 h 1,3 km/h (1 Bft)
06.06.2009 11:00 18,6 C 14,0 C 3,9 UV-I 2,2 C 44 % 59 % 53 % 999,8 hPa 0,0 l/m 0,4 km/h (0 Bft) 0,27 h 1,0 km/h (0 Bft)
06.06.2009 12:00 18,9 C 15,5 C 3,7 UV-I 2,2 C 43 % 54 % 58 % 999,4 hPa 0,0 l/m 1,1 km/h (1 Bft) 0,27 h 1,8 km/h (1 Bft)
06.06.2009 13:00 19,2 C 15,2 C 1,6 UV-I 0,3 C 43 % 54 % 8 % 999,8 hPa 0,0 l/m 0,6 km/h (0 Bft) 0,00 h 1,5 km/h (1 Bft)
06.06.2009 14:00 19,0 C 13,0 C 1,0 UV-I 0,0 C 46 % 71 % 0 % 999,8 hPa 0,9 l/m 0,1 km/h (0 Bft) 0,00 h 0,6 km/h (0 Bft)
06.06.2009 15:00 18,9 C 12,0 C 1,8 UV-I 0,0 C 49 % 80 % 0 % 999,5 hPa 1,1 l/m 0,2 km/h (0 Bft) 0,00 h 0,3 km/h (0 Bft)
06.06.2009 16:00 19,0 C 12,1 C 1,7 UV-I 0,0 C 51 % 83 % 0 % 999,4 hPa 0,5 l/m 0,0 km/h (0 Bft) 0,00 h 0,1 km/h (0 Bft)
06.06.2009 17:00 19,0 C 11,8 C 0,9 UV-I 0,0 C 51 % 84 % 0 % 999,4 hPa 1,4 l/m 0,1 km/h (0 Bft) 0,00 h 0,1 km/h (0 Bft)
06.06.2009 18:00 18,8 C 11,4 C 0,7 UV-I 0,0 C 52 % 86 % 0 % 999,2 hPa 0,9 l/m 0,1 km/h (0 Bft) 0,00 h 0,0 km/h (0 Bft)
06.06.2009 19:00 18,7 C 11,1 C 0,4 UV-I 0,0 C 53 % 87 % 0 % 999,2 hPa 0,3 l/m 0,1 km/h (0 Bft) 0,00 h 0,0 km/h (0 Bft)
06.06.2009 20:00 18,6 C 10,8 C 0,1 UV-I 0,0 C 53 % 88 % 0 % 999,0 hPa 0,0 l/m 0,0 km/h (0 Bft) 0,00 h 0,1 km/h (0 Bft)
06.06.2009 21:00 18,4 C 10,3 C 0,0 UV-I 0,0 C 53 % 88 % 0 % 999,0 hPa 0,0 l/m 0,0 km/h (0 Bft) 0,00 h 0,0 km/h (0 Bft)
06.06.2009 22:00 18,3 C 10,0 C 0,0 UV-I 0,0 C 53 % 88 % 0 % 999,2 hPa 0,0 l/m 0,0 km/h (0 Bft) 0,00 h 0,0 km/h (0 Bft)
06.06.2009 23:00 18,2 C 9,8 C 0,0 UV-I 0,0 C 54 % 89 % 0 % 999,2 hPa 0,0 l/m 0,0 km/h (0 Bft) 0,00 h 0,0 km/h (0 Bft)
07.06.2009 00:00 18,1 C 9,8 C 0,0 UV-I 0,0 C 54 % 90 % 0 % 999,2 hPa 0,0 l/m 0,0 km/h (0 Bft) 0,00 h 0,0 km/h (0 Bft)
07.06.2009 01:00 18,0 C 9,8 C 0,0 UV-I 0,0 C 54 % 90 % 0 % 999,3 hPa 0,0 l/m 0,2 km/h (0 Bft) 0,00 h 0,2 km/h (0 Bft)
07.06.2009 02:00 18,0 C 9,6 C 0,0 UV-I 0,0 C 55 % 90 % 0 % 999,5 hPa 0,0 l/m 0,1 km/h (0 Bft) 0,00 h 0,1 km/h (0 Bft)
07.06.2009 03:00 17,9 C 9,6 C 0,0 UV-I 0,0 C 55 % 90 % 0 % 999,6 hPa 0,0 l/m 0,0 km/h (0 Bft) 0,00 h 0,0 km/h (0 Bft)
07.06.2009 04:00 17,8 C 9,5 C 0,0 UV-I 0,0 C 55 % 90 % 0 % 999,8 hPa 0,0 l/m 0,0 km/h (0 Bft) 0,00 h 0,0 km/h (0 Bft)
07.06.2009 05:00 17,8 C 9,2 C 0,0 UV-I 0,0 C 55 % 91 % 0 % 999,9 hPa 0,0 l/m 0,0 km/h (0 Bft) 0,00 h 0,0 km/h (0 Bft)
07.06.2009 06:00 17,8 C 9,6 C 0,1 UV-I 0,0 C 55 % 92 % 0 % 1000,3 hPa 0,0 l/m 0,0 km/h (0 Bft) 0,00 h 0,0 km/h (0 Bft)
07.06.2009 07:00 18,0 C 10,3 C 0,4 UV-I 0,3 C 55 % 92 % 10 % 1000,5 hPa 0,0 l/m 0,0 km/h (0 Bft) 0,00 h 0,0 km/h (0 Bft)
07.06.2009 08:00 18,0 C 11,1 C 1,0 UV-I 0,6 C 56 % 89 % 18 % 1000,9 hPa 0,0 l/m 0,0 km/h (0 Bft) 0,00 h 0,0 km/h (0 Bft)
07.06.2009 09:00 18,2 C 12,3 C 1,8 UV-I 1,6 C 55 % 84 % 45 % 1001,3 hPa 0,0 l/m 0,2 km/h (0 Bft) 0,00 h 0,6 km/h (0 Bft)
07.06.2009 10:00 18,4 C 13,7 C 2,7 UV-I 2,5 C 55 % 79 % 70 % 1001,1 hPa 0,0 l/m 0,3 km/h (0 Bft) 0,27 h 0,7 km/h (0 Bft)
07.06.2009 11:00 18,7 C 15,7 C 5,6 UV-I 3,0 C 54 % 71 % 79 % 1001,5 hPa 0,0 l/m 1,7 km/h (1 Bft) 0,50 h 3,0 km/h (1 Bft)
07.06.2009 12:00 19,0 C 16,7 C 4,5 UV-I 1,6 C 54 % 67 % 47 % 1001,6 hPa 0,0 l/m 1,7 km/h (1 Bft) 0,00 h 2,3 km/h (1 Bft)
07.06.2009 13:00 19,3 C 17,3 C 4,1 UV-I 1,1 C 54 % 66 % 31 % 1001,4 hPa 0,0 l/m 1,9 km/h (1 Bft) 0,07 h 2,4 km/h (1 Bft)
07.06.2009 14:00 19,4 C 16,4 C 1,6 UV-I 0,0 C 55 % 73 % 0 % 1001,6 hPa 0,2 l/m 0,5 km/h (0 Bft) 0,00 h 0,8 km/h (0 Bft)
07.06.2009 15:00 19,2 C 15,3 C 1,5 UV-I 0,0 C 58 % 79 % 0 % 1001,2 hPa 0,5 l/m 0,1 km/h (0 Bft) 0,00 h 0,1 km/h (0 Bft)
07.06.2009 16:00 19,2 C 14,3 C 0,5 UV-I 0,0 C 58 % 83 % 0 % 1000,9 hPa 2,9 l/m 0,0 km/h (0 Bft) 0,00 h 0,0 km/h (0 Bft)
07.06.2009 17:00 19,0 C 13,8 C 0,5 UV-I 0,0 C 60 % 87 % 0 % 1000,9 hPa 5,3 l/m 0,2 km/h (0 Bft) 0,00 h 0,4 km/h (0 Bft)
07.06.2009 18:00 18,9 C 13,7 C 0,9 UV-I 0,0 C 62 % 89 % 1 % 1001,1 hPa 0,0 l/m 0,1 km/h (0 Bft) 0,00 h 0,3 km/h (0 Bft)
07.06.2009 19:00 19,0 C 14,3 C 1,1 UV-I 0,0 C 63 % 88 % 1 % 1001,3 hPa 0,0 l/m 0,4 km/h (0 Bft) 0,00 h 0,4 km/h (0 Bft)
07.06.2009 20:00 19,4 C 13,8 C 0,1 UV-I 0,0 C 62 % 86 % 0 % 1001,9 hPa 5,1 l/m 2,4 km/h (1 Bft) 0,00 h 2,4 km/h (1 Bft)
07.06.2009 21:00 18,7 C 11,8 C 0,1 UV-I 0,0 C 60 % 86 % 0 % 1002,2 hPa 0,1 l/m 0,9 km/h (0 Bft) 0,00 h 0,9 km/h (0 Bft)
07.06.2009 22:00 18,1 C 10,7 C 0,0 UV-I 0,0 C 60 % 89 % 0 % 1002,7 hPa 0,1 l/m 1,1 km/h (1 Bft) 0,00 h 1,1 km/h (1 Bft)
07.06.2009 23:00 17,7 C 10,7 C 0,0 UV-I 0,0 C 61 % 90 % 0 % 1003,1 hPa 0,0 l/m 0,1 km/h (0 Bft) 0,00 h 0,4 km/h (0 Bft)
Min-Datum _ 06.06.09 06.06.09 01.06.09 01.06.09 02.06.09 01.06.09 01.06.09 06.06.09 - 01.06.09 - 01.06.09
_ Min-Zeit 05:36 04:50 00:00 00:00 17:56 15:34 00:00 19:58 - 00:00 - 00:00
Minimum _ 17,6 C 6,6 C 0,0 UV-I 0,0 C 36 % 33 % 0 % 998,8 hPa - 0,0 km/h (0 Bft) - 0,0 km/h (0 Bft)
Max-Datum _ 02.06.09 01.06.09 02.06.09 01.06.09 01.06.09 07.06.09 01.06.09 02.06.09 07.06.09 01.06.09 01.06.09 01.06.09
_ Max-Zeit 17:40 15:26 10:42 10:30 09:36 05:44 09:46 16:38 17:32 19:04 09:44 19:02
Maximum _ 26,8 C 28,9 C 13,7 UV-I 7,0 C 63 % 92 % 100 % 1024,8 hPa 5,3 l/m 8,7 km/h
S (2 Bft)
0,03 h 18,2 km/h
S (3 Bft)
Durchschnitt _ 20,4 C 14,4 C 1,7 UV-I 0,9 C 47 % 65 % 23 % 1012,5 hPa #19,4 l/m 1,8 km/h (1 Bft) #21:09 h 2,1 km/h (1 Bft)
© 2012 W. Hausmann